NATURA VA

 INFORMACIÓN METAR y TAF
METAR FOR LFMK
ADDS - METARS form results

(1012 UTC 19 July 2019)
Data provider http://aviationweather.gov/metar/data/
 
METAR text: LFMK 191000Z AUTO 27006KT 210V320 CAVOK 27/15 Q1017 NOSIG
Conditions at: LFMK (CARCASSONNE/SALV, FR) observed 1000 UTC 19 July 2019
Temperature: 27.0°C (81°F)
Dewpoint: 15.0°C (59°F) [RH = 48%]
Pressure (altimeter): 30.03 inches Hg (1017.0 mb)
Winds: from the W (270 degrees) at 7 MPH (6 knots; 3.1 m/s)
Visibility: 6 or more miles (10+ km)
Ceiling: ceiling and visibility are OK
Clouds: unknown
Weather: no significant weather observed at this time

METAR text: LFMK 190930Z AUTO 28009KT 230V320 CAVOK 26/14 Q1017 NOSIG
Conditions at: LFMK (CARCASSONNE/SALV, FR) observed 0930 UTC 19 July 2019
Temperature: 26.0°C (79°F)
Dewpoint: 14.0°C (57°F) [RH = 48%]
Pressure (altimeter): 30.03 inches Hg (1017.0 mb)
Winds: from the W (280 degrees) at 10 MPH (9 knots; 4.6 m/s)
Visibility: 6 or more miles (10+ km)
Ceiling: ceiling and visibility are OK
Clouds: unknown
Weather: no significant weather observed at this time

Forecast for: LFMK (CARCASSONNE/SALV, FR)
Text: TAF LFMK 190800Z 1909/2009 26010KT CAVOK
Forecast period: 0900 to 1200 UTC 19 July 2019
Forecast type: FROM: standard forecast or significant change
Winds: from the W (260 degrees) at 12 MPH (10 knots; 5.1 m/s)
Visibility: 6 or more miles 10+ km)
Ceiling: unknown
Clouds: missing
Weather: NSW  (no significant weather)
Text: BECMG 1912/1915 VRB02KT
Forecast period: 1200 to 1800 UTC 19 July 2019
Forecast type: BECOMING: Conditions expected to become as follows by 1500 UTC 19 July 2019
Winds: variable direction winds at 2 MPH (2 knots; 1.0 m/s)
Visibility: 6 or more miles 10+ km)
Ceiling: unknown
Clouds: missing
Weather: NSW  (no significant weather)
Text: BECMG 1918/1920 09010KT
Forecast period: 1800 UTC 19 July 2019 to 0900 UTC 20 July 2019
Forecast type: BECOMING: Conditions expected to become as follows by 2000 UTC 19 July 2019
Winds: from the E (90 degrees) at 12 MPH (10 knots; 5.1 m/s)
Visibility: 6 or more miles 10+ km)
Ceiling: unknown
Clouds: missing
Weather: NSW  (no significant weather)
Text: TEMPO 2003/2009 BKN010
Forecast period: 0300 to 0900 UTC 20 July 2019
Forecast type: TEMPORARY: The following changes expected for less than half the time period
Visibility: missing
Ceiling: 1000 feet AGL
Clouds: broken clouds at 1000 feet AGL
Weather: no significant weather forecast for this period

 MAPA DE AEROPUERTO

 INFORMACIÓN DE PISTA
Pista 10 Longitud 6726 ft Ancho 148 ft
Elevación 433 ft Umbral desplazado 328 ft Rumbo de pista 97
Pista 28 Longitud 6726 ft Ancho 148 ft
Elevación 404 ft Umbral desplazado 495 ft Rumbo de pista 277

 FRECUANCIAS DEL AEROPUERTO
Tipo APP Nombre TOULOUSE A Frecuencia 123.85 MHZ
Tipo ATIS Nombre ATIS Frecuencia 120.025 MHZ
Tipo TWR Nombre CARCASSONN Frecuencia 121 MHZ

 RADIO AYUDAS DEL AEROPUERTO



Powered by Virtual Airlines Manager [v2.6.2]